Terminal Aerodrome Forecast
Issued by NWS

Home | Current Version | Previous Version | Text Only | Print | Product List | Glossary On
Versions: 1 2 3 4 5 6 7 8 9 10 11 12 13
250
FTUS45 KFGZ 172328
TAFGCN
TAF
KGCN 172328Z 1800/1824 23010KT P6SM SCT250
     FM180100 VRB05KT P6SM BKN250
     FM181800 25010KT P6SM BKN080=

USA.gov is the U.S. government's official web portal to all federal, state and local government web resources and services.